Airfield :
LOGIN :

Register | Disclaimer

   EN    FR    IT 

 










Legend :    VFR   Marginal VFR   IFR   Intensive IFR   Very Intensive IFR
Visi :
Ceiling :
>= 8 km
>= 3000ft
5 to 8 km
1000 to 3000 ft
1500m to 5 km
500 to 1000 ft
800 to 1500m
200 to 500 ft
< 800m
< 200 ft
Symbols :   Thunderstorms  Fog  Heavy snow  Heavy precipitations  Wind > 20 kt
SIGMETs :     Misc.  Thunderstorms  Icing  Turbulence  Mountain Waves  Volcanic Ashes







- Airport Elevation : 348 ft
- IATA code : STN
- Download approach charts


EGSS - London Stansted

CURRENT METAR :
  • 211020Z AUTO 22010KT 9999 SCT033 SCT043 21/13 Q1021

EXPIRED METARs :
  • 210950Z AUTO 24007KT 200V270 9999 FEW033 21/12 Q1021
  • 210920Z AUTO 22007KT 180V260 9999 NCD 19/13 Q1021
  • 210850Z AUTO 24007KT 190V270 9999 NCD 19/12 Q1020
  • 210820Z AUTO 24006KT 200V290 9999 NCD 18/12 Q1020
  • 210750Z AUTO 24007KT 9999 NCD 17/13 Q1020
  • 210720Z AUTO 23007KT 9999 NCD 16/13 Q1020

TAF TAF EGSS
Valid from the 21 at 06:00 until the 22 at 12:00 UTC


210505Z 2106/2212 22003KT 9999 SCT035
TEMPO 2106/2108 4000 HZ
BECMG 2109/2112 22013KT
PROB30
TEMPO 2122/2207 23016G26KT
TEMPO 2203/2212 BKN009
ATIS : +44 1279 669 325
No reported NOTAMs for that airfield.



MET'MAP, your aeronautical weather chart ! - Copyright ORBIFLY December 2007 - Disclaimer

ORBIFLY MET'MAP TEAM :

Programming & Development : Alexandra Zaïnal
Concept & Development : Baudouin d'Aumeries
Co-Development & Prog : Marc-Olivier Méhu
Technical & hardware support : Manuel Goepfert

Contact : metmap@orbifly.com




SOURCES & CREDITS :

   NOAA